B12G9 ZSZS-ZSAM
Flight info
| Callsign | B12G9 |
|---|---|
| Flight time | 2h 17m |
| Altitude | 17700 |
| Route | BK W58 SHZ B221 LJG A470 ENVEN |
| Aircraft | B60T/L-SDFGRY/C |
Departure
| Time | 2026-04-28 06:50 |
|---|---|
| Airport | Zhoushan Putuoshan International Airport (ZSZS) |
Arrival
| Time | 2026-04-28 09:08 |
|---|---|
| Airport | Xiamen Gaoqi International Airport (ZSAM) |
| Time | Latitude | Longitude | Altitude | Speed | Heading |
|---|---|---|---|---|---|
| 2026-04-28 06:38 | 29.92140 | 122.36079 | 30 ft | 0 kts | 265° |
| 2026-04-28 06:46 | 29.92139 | 122.36078 | 30 ft | 1 kts | 265° |
| 2026-04-28 06:46 | 29.92137 | 122.36028 | 30 ft | 14 kts | 266° |
| 2026-04-28 06:46 | 29.92169 | 122.35973 | 28 ft | 7 kts | 349° |
| 2026-04-28 06:47 | 29.92223 | 122.35971 | 29 ft | 10 kts | 23° |
| 2026-04-28 06:47 | 29.92238 | 122.36024 | 33 ft | 7 kts | 85° |
| 2026-04-28 06:47 | 29.92244 | 122.36091 | 39 ft | 8 kts | 83° |
| 2026-04-28 06:47 | 29.92255 | 122.36141 | 43 ft | 9 kts | 51° |
| 2026-04-28 06:48 | 29.92307 | 122.36202 | 48 ft | 9 kts | 81° |
| 2026-04-28 06:48 | 29.92307 | 122.36210 | 48 ft | 0 kts | 87° |
| 2026-04-28 06:49 | 29.92309 | 122.36232 | 51 ft | 10 kts | 86° |
| 2026-04-28 06:49 | 29.92317 | 122.36316 | 48 ft | 11 kts | 73° |
| 2026-04-28 06:49 | 29.92357 | 122.36341 | 48 ft | 0 kts | 356° |
| 2026-04-28 06:49 | 29.92430 | 122.36336 | 49 ft | 41 kts | 355° |
| 2026-04-28 06:50 | 29.92996 | 122.36266 | 94 ft | 111 kts | 356° |
| 2026-04-28 06:50 | 29.93850 | 122.36171 | 536 ft | 133 kts | 358° |
| 2026-04-28 06:50 | 29.94827 | 122.36061 | 1102 ft | 145 kts | 358° |
| 2026-04-28 06:50 | 29.95847 | 122.35964 | 1605 ft | 149 kts | 359° |
| 2026-04-28 06:51 | 29.96890 | 122.35864 | 2112 ft | 152 kts | 0° |
| 2026-04-28 06:51 | 29.97952 | 122.35756 | 2653 ft | 155 kts | 359° |
| 2026-04-28 06:51 | 29.99031 | 122.35640 | 3166 ft | 157 kts | 359° |
| 2026-04-28 06:51 | 30.00124 | 122.35524 | 3670 ft | 159 kts | 359° |
| 2026-04-28 06:52 | 30.01221 | 122.35408 | 4161 ft | 161 kts | 360° |
| 2026-04-28 06:52 | 30.02371 | 122.35289 | 4547 ft | 170 kts | 359° |
| 2026-04-28 06:52 | 30.03576 | 122.35166 | 4938 ft | 176 kts | 359° |
| 2026-04-28 06:52 | 30.04814 | 122.35035 | 5348 ft | 181 kts | 358° |
| 2026-04-28 06:53 | 30.06081 | 122.34899 | 5763 ft | 185 kts | 356° |
| 2026-04-28 06:53 | 30.07369 | 122.34764 | 6165 ft | 188 kts | 355° |
| 2026-04-28 06:53 | 30.08623 | 122.34389 | 6557 ft | 188 kts | 323° |
| 2026-04-28 06:53 | 30.09380 | 122.33231 | 6955 ft | 179 kts | 279° |
| 2026-04-28 06:54 | 30.09284 | 122.31872 | 7363 ft | 168 kts | 244° |
| 2026-04-28 06:54 | 30.08754 | 122.30687 | 7781 ft | 164 kts | 229° |
| 2026-04-28 06:54 | 30.07993 | 122.29712 | 8215 ft | 163 kts | 224° |
| 2026-04-28 06:54 | 30.07210 | 122.28772 | 8644 ft | 162 kts | 224° |
| 2026-04-28 06:55 | 30.06363 | 122.27961 | 9064 ft | 160 kts | 213° |
| 2026-04-28 06:55 | 30.05493 | 122.27170 | 9498 ft | 159 kts | 222° |
| 2026-04-28 06:55 | 30.04822 | 122.26158 | 9944 ft | 159 kts | 235° |
| 2026-04-28 06:55 | 30.04264 | 122.25057 | 10341 ft | 159 kts | 237° |
| 2026-04-28 06:56 | 30.03726 | 122.23949 | 10688 ft | 158 kts | 238° |
| 2026-04-28 06:56 | 30.03196 | 122.22852 | 11113 ft | 156 kts | 238° |
| 2026-04-28 06:56 | 30.02671 | 122.21769 | 11511 ft | 153 kts | 238° |
| 2026-04-28 06:56 | 30.02148 | 122.20691 | 11926 ft | 151 kts | 239° |
| 2026-04-28 06:57 | 30.01643 | 122.19650 | 12355 ft | 150 kts | 239° |
| 2026-04-28 06:57 | 30.01132 | 122.18595 | 12765 ft | 148 kts | 239° |
| 2026-04-28 06:57 | 30.00635 | 122.17572 | 13144 ft | 149 kts | 239° |
| 2026-04-28 06:57 | 30.00124 | 122.16517 | 13467 ft | 152 kts | 239° |
| 2026-04-28 06:58 | 29.99606 | 122.15446 | 13801 ft | 153 kts | 239° |
| 2026-04-28 06:58 | 29.99084 | 122.14370 | 14100 ft | 154 kts | 240° |
| 2026-04-28 06:58 | 29.98560 | 122.13290 | 14393 ft | 154 kts | 240° |
| 2026-04-28 06:58 | 29.98035 | 122.12208 | 14675 ft | 155 kts | 240° |
| 2026-04-28 06:59 | 29.97508 | 122.11124 | 14944 ft | 156 kts | 240° |
| 2026-04-28 06:59 | 29.96975 | 122.10027 | 15241 ft | 157 kts | 240° |
| 2026-04-28 06:59 | 29.96439 | 122.08923 | 15541 ft | 158 kts | 240° |
| 2026-04-28 06:59 | 29.95899 | 122.07814 | 15846 ft | 159 kts | 241° |
| 2026-04-28 07:00 | 29.95360 | 122.06704 | 16132 ft | 159 kts | 241° |
| 2026-04-28 07:00 | 29.94816 | 122.05586 | 16430 ft | 160 kts | 242° |
| 2026-04-28 07:00 | 29.94270 | 122.04464 | 16735 ft | 161 kts | 242° |
| 2026-04-28 07:00 | 29.93723 | 122.03340 | 17051 ft | 161 kts | 242° |
| 2026-04-28 07:01 | 29.93175 | 122.02213 | 17352 ft | 161 kts | 242° |
| 2026-04-28 07:01 | 29.92626 | 122.01087 | 17655 ft | 161 kts | 242° |
| 2026-04-28 07:01 | 29.92123 | 121.99895 | 17731 ft | 172 kts | 255° |
| 2026-04-28 07:01 | 29.92033 | 121.98475 | 17739 ft | 184 kts | 265° |
| 2026-04-28 07:02 | 29.91989 | 121.96975 | 17740 ft | 191 kts | 264° |
| 2026-04-28 07:02 | 29.91933 | 121.95424 | 17732 ft | 196 kts | 264° |
| 2026-04-28 07:02 | 29.91879 | 121.93849 | 17739 ft | 197 kts | 264° |
| 2026-04-28 07:02 | 29.91825 | 121.92283 | 17739 ft | 198 kts | 264° |
| 2026-04-28 07:03 | 29.91769 | 121.90685 | 17736 ft | 201 kts | 264° |
| 2026-04-28 07:03 | 29.91711 | 121.89062 | 17738 ft | 204 kts | 264° |
| 2026-04-28 07:03 | 29.91653 | 121.87419 | 17744 ft | 207 kts | 265° |
| 2026-04-28 07:03 | 29.91595 | 121.85753 | 17741 ft | 208 kts | 265° |
| 2026-04-28 07:04 | 29.91535 | 121.84077 | 17746 ft | 210 kts | 265° |
| 2026-04-28 07:04 | 29.91475 | 121.82385 | 17741 ft | 211 kts | 265° |
| 2026-04-28 07:04 | 29.91414 | 121.80692 | 17735 ft | 212 kts | 265° |
| 2026-04-28 07:04 | 29.91354 | 121.79005 | 17738 ft | 209 kts | 265° |
| 2026-04-28 07:05 | 29.91293 | 121.77334 | 17734 ft | 207 kts | 265° |
| 2026-04-28 07:05 | 29.91233 | 121.75684 | 17729 ft | 205 kts | 265° |
| 2026-04-28 07:05 | 29.91168 | 121.74045 | 17732 ft | 204 kts | 265° |
| 2026-04-28 07:05 | 29.91114 | 121.72414 | 17727 ft | 203 kts | 265° |
| 2026-04-28 07:06 | 29.91052 | 121.70787 | 17725 ft | 203 kts | 265° |
| 2026-04-28 07:06 | 29.90992 | 121.69161 | 17728 ft | 203 kts | 265° |
| 2026-04-28 07:06 | 29.90933 | 121.67535 | 17725 ft | 203 kts | 265° |
| 2026-04-28 07:06 | 29.90873 | 121.65906 | 17728 ft | 203 kts | 265° |
| 2026-04-28 07:07 | 29.90813 | 121.64277 | 17726 ft | 203 kts | 265° |
| 2026-04-28 07:07 | 29.90753 | 121.62670 | 17727 ft | 204 kts | 265° |
| 2026-04-28 07:07 | 29.90692 | 121.61040 | 17727 ft | 204 kts | 265° |
| 2026-04-28 07:07 | 29.90631 | 121.59407 | 17725 ft | 204 kts | 265° |
| 2026-04-28 07:08 | 29.90569 | 121.57775 | 17727 ft | 204 kts | 265° |
| 2026-04-28 07:08 | 29.90508 | 121.56141 | 17725 ft | 204 kts | 265° |
| 2026-04-28 07:08 | 29.90446 | 121.54507 | 17729 ft | 204 kts | 265° |
| 2026-04-28 07:08 | 29.90383 | 121.52874 | 17726 ft | 204 kts | 265° |
| 2026-04-28 07:09 | 29.90321 | 121.51238 | 17731 ft | 204 kts | 265° |
| 2026-04-28 07:09 | 29.90259 | 121.49603 | 17730 ft | 204 kts | 265° |
| 2026-04-28 07:09 | 29.90196 | 121.47967 | 17726 ft | 204 kts | 265° |
| 2026-04-28 07:09 | 29.90133 | 121.46333 | 17727 ft | 204 kts | 265° |
| 2026-04-28 07:10 | 29.90070 | 121.44699 | 17725 ft | 204 kts | 265° |
| 2026-04-28 07:10 | 29.90007 | 121.43065 | 17726 ft | 204 kts | 265° |
| 2026-04-28 07:10 | 29.89943 | 121.41429 | 17727 ft | 204 kts | 265° |
| 2026-04-28 07:10 | 29.89880 | 121.39816 | 17730 ft | 205 kts | 265° |
| 2026-04-28 07:11 | 29.89816 | 121.38173 | 17728 ft | 205 kts | 265° |
| 2026-04-28 07:11 | 29.89755 | 121.36536 | 17734 ft | 204 kts | 265° |
| 2026-04-28 07:11 | 29.89688 | 121.34900 | 17729 ft | 204 kts | 265° |
| 2026-04-28 07:11 | 29.89451 | 121.33299 | 17731 ft | 202 kts | 248° |
| 2026-04-28 07:12 | 29.88752 | 121.31893 | 17735 ft | 203 kts | 238° |
| 2026-04-28 07:12 | 29.87968 | 121.30537 | 17736 ft | 204 kts | 238° |
| 2026-04-28 07:12 | 29.87192 | 121.29165 | 17736 ft | 205 kts | 239° |
| 2026-04-28 07:12 | 29.86411 | 121.27791 | 17741 ft | 206 kts | 238° |
| 2026-04-28 07:13 | 29.85626 | 121.26412 | 17736 ft | 206 kts | 238° |
| 2026-04-28 07:13 | 29.84836 | 121.25026 | 17729 ft | 207 kts | 238° |
| 2026-04-28 07:13 | 29.84049 | 121.23645 | 17732 ft | 206 kts | 238° |
| 2026-04-28 07:13 | 29.83261 | 121.22259 | 17731 ft | 208 kts | 238° |
| 2026-04-28 07:14 | 29.82462 | 121.20857 | 17736 ft | 211 kts | 238° |
| 2026-04-28 07:14 | 29.81651 | 121.19437 | 17739 ft | 213 kts | 238° |
| 2026-04-28 07:14 | 29.80837 | 121.18007 | 17737 ft | 214 kts | 238° |
| 2026-04-28 07:14 | 29.80029 | 121.16591 | 17735 ft | 215 kts | 238° |
| 2026-04-28 07:15 | 29.79205 | 121.15149 | 17733 ft | 215 kts | 238° |
| 2026-04-28 07:15 | 29.78379 | 121.13702 | 17735 ft | 216 kts | 238° |
| 2026-04-28 07:15 | 29.77551 | 121.12253 | 17726 ft | 216 kts | 238° |
| 2026-04-28 07:15 | 29.76726 | 121.10810 | 17728 ft | 216 kts | 238° |
| 2026-04-28 07:16 | 29.75896 | 121.09358 | 17726 ft | 217 kts | 238° |
| 2026-04-28 07:16 | 29.75067 | 121.07909 | 17726 ft | 217 kts | 238° |
| 2026-04-28 07:16 | 29.74236 | 121.06455 | 17725 ft | 218 kts | 238° |
| 2026-04-28 07:16 | 29.73401 | 121.04996 | 17720 ft | 218 kts | 238° |
| 2026-04-28 07:17 | 29.72565 | 121.03536 | 17724 ft | 218 kts | 238° |
| 2026-04-28 07:17 | 29.71731 | 121.02081 | 17718 ft | 219 kts | 238° |
| 2026-04-28 07:17 | 29.70893 | 121.00618 | 17721 ft | 220 kts | 238° |
| 2026-04-28 07:17 | 29.70335 | 120.99643 | 17721 ft | 220 kts | 238° |
| 2026-04-28 07:18 | 29.69208 | 120.97676 | 17724 ft | 221 kts | 238° |
| 2026-04-28 07:18 | 29.68371 | 120.96217 | 17722 ft | 221 kts | 238° |
| 2026-04-28 07:18 | 29.67513 | 120.94722 | 17719 ft | 221 kts | 238° |
| 2026-04-28 07:18 | 29.66667 | 120.93248 | 17724 ft | 221 kts | 238° |
| 2026-04-28 07:19 | 29.66315 | 120.92636 | 17722 ft | 221 kts | 238° |
| 2026-04-28 07:23 | 29.65621 | 120.91426 | 17720 ft | 222 kts | 238° |
| 2026-04-28 07:23 | 29.64770 | 120.89946 | 17724 ft | 222 kts | 238° |
| 2026-04-28 07:23 | 29.63917 | 120.88462 | 17718 ft | 222 kts | 238° |
| 2026-04-28 07:24 | 29.63069 | 120.86986 | 17717 ft | 221 kts | 238° |
| 2026-04-28 07:24 | 29.62222 | 120.85513 | 17715 ft | 221 kts | 238° |
| 2026-04-28 07:24 | 29.61375 | 120.84041 | 17713 ft | 221 kts | 238° |
| 2026-04-28 07:24 | 29.60417 | 120.82668 | 17710 ft | 222 kts | 223° |
| 2026-04-28 07:25 | 29.59084 | 120.81745 | 17711 ft | 227 kts | 206° |
| 2026-04-28 07:25 | 29.57515 | 120.81382 | 17713 ft | 233 kts | 191° |
| 2026-04-28 07:25 | 29.55897 | 120.81231 | 17709 ft | 234 kts | 191° |
| 2026-04-28 07:25 | 29.54280 | 120.81063 | 17709 ft | 234 kts | 191° |
| 2026-04-28 07:26 | 29.52660 | 120.80893 | 17702 ft | 233 kts | 191° |
| 2026-04-28 07:26 | 29.51039 | 120.80725 | 17705 ft | 235 kts | 191° |
| 2026-04-28 07:26 | 29.49410 | 120.80557 | 17707 ft | 235 kts | 191° |
| 2026-04-28 07:26 | 29.47777 | 120.80387 | 17701 ft | 235 kts | 191° |
| 2026-04-28 07:27 | 29.46172 | 120.80220 | 17700 ft | 235 kts | 191° |
| 2026-04-28 07:27 | 29.44549 | 120.80051 | 17701 ft | 235 kts | 191° |
| 2026-04-28 07:27 | 29.42927 | 120.79883 | 17700 ft | 235 kts | 191° |
| 2026-04-28 07:27 | 29.41295 | 120.79714 | 17697 ft | 235 kts | 191° |
| 2026-04-28 07:28 | 29.39673 | 120.79545 | 17695 ft | 235 kts | 191° |
| 2026-04-28 07:28 | 29.38042 | 120.79376 | 17695 ft | 235 kts | 191° |
| 2026-04-28 07:28 | 29.36414 | 120.79207 | 17686 ft | 235 kts | 191° |
| 2026-04-28 07:28 | 29.34792 | 120.79039 | 17684 ft | 235 kts | 191° |
| 2026-04-28 07:29 | 29.33161 | 120.78871 | 17687 ft | 235 kts | 191° |
| 2026-04-28 07:29 | 29.31532 | 120.78701 | 17684 ft | 235 kts | 191° |
| 2026-04-28 07:29 | 29.29897 | 120.78530 | 17684 ft | 236 kts | 191° |
| 2026-04-28 07:29 | 29.28262 | 120.78362 | 17680 ft | 236 kts | 191° |
| 2026-04-28 07:30 | 29.26623 | 120.78193 | 17675 ft | 236 kts | 191° |
| 2026-04-28 07:30 | 29.24986 | 120.78023 | 17677 ft | 236 kts | 191° |
| 2026-04-28 07:30 | 29.23368 | 120.77855 | 17676 ft | 236 kts | 191° |
| 2026-04-28 07:30 | 29.21733 | 120.77687 | 17676 ft | 236 kts | 191° |
| 2026-04-28 07:31 | 29.20104 | 120.77518 | 17664 ft | 235 kts | 191° |
| 2026-04-28 07:31 | 29.18472 | 120.77349 | 17675 ft | 235 kts | 191° |
| 2026-04-28 07:31 | 29.16846 | 120.77181 | 17675 ft | 235 kts | 191° |
| 2026-04-28 07:31 | 29.15213 | 120.77013 | 17672 ft | 235 kts | 191° |
| 2026-04-28 07:32 | 29.13588 | 120.76845 | 17670 ft | 235 kts | 191° |
| 2026-04-28 07:32 | 29.11954 | 120.76676 | 17666 ft | 235 kts | 191° |
| 2026-04-28 07:32 | 29.10327 | 120.76508 | 17664 ft | 234 kts | 191° |
| 2026-04-28 07:32 | 29.08707 | 120.76341 | 17665 ft | 234 kts | 191° |
| 2026-04-28 07:33 | 29.07083 | 120.76174 | 17664 ft | 234 kts | 191° |
| 2026-04-28 07:33 | 29.05485 | 120.76009 | 17666 ft | 233 kts | 191° |
| 2026-04-28 07:33 | 29.03874 | 120.75843 | 17660 ft | 232 kts | 191° |
| 2026-04-28 07:33 | 29.02262 | 120.75677 | 17673 ft | 232 kts | 191° |
| 2026-04-28 07:34 | 29.00647 | 120.75510 | 17668 ft | 233 kts | 191° |
| 2026-04-28 07:34 | 28.99029 | 120.75344 | 17664 ft | 234 kts | 191° |
| 2026-04-28 07:34 | 28.97406 | 120.75178 | 17662 ft | 234 kts | 191° |
| 2026-04-28 07:34 | 28.95787 | 120.75010 | 17655 ft | 233 kts | 192° |
| 2026-04-28 07:35 | 28.94194 | 120.74846 | 17664 ft | 233 kts | 191° |
| 2026-04-28 07:35 | 28.92576 | 120.74679 | 17661 ft | 233 kts | 191° |
| 2026-04-28 07:35 | 28.90962 | 120.74513 | 17665 ft | 232 kts | 191° |
| 2026-04-28 07:35 | 28.89355 | 120.74347 | 17656 ft | 232 kts | 191° |
| 2026-04-28 07:36 | 28.87746 | 120.74184 | 17661 ft | 232 kts | 191° |
| 2026-04-28 07:36 | 28.86132 | 120.74017 | 17662 ft | 233 kts | 191° |
| 2026-04-28 07:36 | 28.84518 | 120.73847 | 17660 ft | 233 kts | 192° |
| 2026-04-28 07:36 | 28.82907 | 120.73666 | 17655 ft | 233 kts | 192° |
| 2026-04-28 07:37 | 28.81297 | 120.73487 | 17653 ft | 232 kts | 191° |
| 2026-04-28 07:37 | 28.79689 | 120.73312 | 17647 ft | 233 kts | 192° |
| 2026-04-28 07:37 | 28.78075 | 120.73135 | 17659 ft | 233 kts | 192° |
| 2026-04-28 07:37 | 28.76462 | 120.72958 | 17658 ft | 233 kts | 192° |
| 2026-04-28 07:38 | 28.74840 | 120.72779 | 17642 ft | 233 kts | 191° |
| 2026-04-28 07:38 | 28.73238 | 120.72605 | 17654 ft | 232 kts | 192° |
| 2026-04-28 07:38 | 28.71631 | 120.72429 | 17656 ft | 232 kts | 192° |
| 2026-04-28 07:38 | 28.70018 | 120.72252 | 17645 ft | 232 kts | 192° |
| 2026-04-28 07:39 | 28.68410 | 120.72077 | 17657 ft | 233 kts | 191° |
| 2026-04-28 07:39 | 28.66797 | 120.71916 | 17657 ft | 232 kts | 191° |
| 2026-04-28 07:39 | 28.65213 | 120.71761 | 17656 ft | 231 kts | 191° |
| 2026-04-28 07:39 | 28.63612 | 120.71599 | 17649 ft | 231 kts | 191° |
| 2026-04-28 07:40 | 28.62012 | 120.71437 | 17649 ft | 231 kts | 191° |
| 2026-04-28 07:40 | 28.60417 | 120.71277 | 17660 ft | 230 kts | 191° |
| 2026-04-28 07:40 | 28.58822 | 120.71117 | 17657 ft | 230 kts | 191° |
| 2026-04-28 07:40 | 28.57222 | 120.70956 | 17654 ft | 230 kts | 191° |
| 2026-04-28 07:41 | 28.55627 | 120.70796 | 17659 ft | 231 kts | 191° |
| 2026-04-28 07:41 | 28.54020 | 120.70632 | 17662 ft | 233 kts | 191° |
| 2026-04-28 07:41 | 28.52407 | 120.70469 | 17651 ft | 232 kts | 191° |
| 2026-04-28 07:41 | 28.50803 | 120.70310 | 17647 ft | 232 kts | 191° |
| 2026-04-28 07:42 | 28.49191 | 120.70146 | 17647 ft | 233 kts | 191° |
| 2026-04-28 07:42 | 28.47579 | 120.69985 | 17648 ft | 232 kts | 191° |
| 2026-04-28 07:42 | 28.45980 | 120.69825 | 17645 ft | 231 kts | 191° |
| 2026-04-28 07:42 | 28.44401 | 120.69666 | 17643 ft | 230 kts | 191° |
| 2026-04-28 07:43 | 28.42828 | 120.69509 | 17653 ft | 228 kts | 191° |
| 2026-04-28 07:43 | 28.41239 | 120.69354 | 17649 ft | 230 kts | 191° |
| 2026-04-28 07:43 | 28.39648 | 120.69198 | 17648 ft | 228 kts | 191° |
| 2026-04-28 07:43 | 28.38062 | 120.69041 | 17654 ft | 230 kts | 191° |
| 2026-04-28 07:44 | 28.36464 | 120.68883 | 17650 ft | 231 kts | 191° |
| 2026-04-28 07:44 | 28.34866 | 120.68726 | 17658 ft | 231 kts | 191° |
| 2026-04-28 07:44 | 28.33266 | 120.68571 | 17644 ft | 230 kts | 191° |
| 2026-04-28 07:44 | 28.31683 | 120.68414 | 17643 ft | 227 kts | 191° |
| 2026-04-28 07:45 | 28.30110 | 120.68258 | 17640 ft | 227 kts | 191° |
| 2026-04-28 07:45 | 28.28531 | 120.68103 | 17651 ft | 228 kts | 191° |
| 2026-04-28 07:45 | 28.26954 | 120.67949 | 17651 ft | 230 kts | 191° |
| 2026-04-28 07:45 | 28.25365 | 120.67793 | 17653 ft | 229 kts | 191° |
| 2026-04-28 07:46 | 28.23766 | 120.67636 | 17648 ft | 230 kts | 191° |
| 2026-04-28 07:46 | 28.22162 | 120.67477 | 17645 ft | 232 kts | 191° |
| 2026-04-28 07:46 | 28.20561 | 120.67320 | 17642 ft | 231 kts | 191° |
| 2026-04-28 07:46 | 28.18961 | 120.67164 | 17646 ft | 231 kts | 191° |
| 2026-04-28 07:47 | 28.17346 | 120.67005 | 17642 ft | 232 kts | 191° |
| 2026-04-28 07:47 | 28.15733 | 120.66846 | 17647 ft | 233 kts | 191° |
| 2026-04-28 07:47 | 28.14115 | 120.66688 | 17643 ft | 233 kts | 191° |
| 2026-04-28 07:47 | 28.12499 | 120.66530 | 17644 ft | 233 kts | 191° |
| 2026-04-28 07:48 | 28.10880 | 120.66372 | 17643 ft | 233 kts | 191° |
| 2026-04-28 07:48 | 28.09264 | 120.66213 | 17637 ft | 233 kts | 191° |
| 2026-04-28 07:48 | 28.07659 | 120.66058 | 17630 ft | 230 kts | 190° |
| 2026-04-28 07:48 | 28.06088 | 120.65902 | 17635 ft | 230 kts | 191° |
| 2026-04-28 07:49 | 28.04490 | 120.65744 | 17635 ft | 231 kts | 191° |
| 2026-04-28 07:49 | 28.02882 | 120.65589 | 17634 ft | 231 kts | 191° |
| 2026-04-28 07:49 | 28.01276 | 120.65435 | 17634 ft | 232 kts | 190° |
| 2026-04-28 07:49 | 27.99663 | 120.65287 | 17633 ft | 232 kts | 190° |
| 2026-04-28 07:50 | 27.98049 | 120.65138 | 17635 ft | 232 kts | 190° |
| 2026-04-28 07:50 | 27.96439 | 120.64987 | 17633 ft | 233 kts | 190° |
| 2026-04-28 07:50 | 27.94821 | 120.64835 | 17633 ft | 233 kts | 190° |
| 2026-04-28 07:50 | 27.93223 | 120.64686 | 17634 ft | 233 kts | 190° |
| 2026-04-28 07:51 | 27.91606 | 120.64536 | 17632 ft | 233 kts | 190° |
| 2026-04-28 07:51 | 27.89985 | 120.64385 | 17630 ft | 234 kts | 190° |
| 2026-04-28 07:51 | 27.88367 | 120.64235 | 17625 ft | 233 kts | 190° |
| 2026-04-28 07:51 | 27.86755 | 120.64084 | 17627 ft | 232 kts | 190° |
| 2026-04-28 07:52 | 27.85150 | 120.63935 | 17631 ft | 230 kts | 190° |
| 2026-04-28 07:52 | 27.83546 | 120.63786 | 17625 ft | 232 kts | 190° |
| 2026-04-28 07:52 | 27.81946 | 120.63638 | 17636 ft | 231 kts | 190° |
| 2026-04-28 07:52 | 27.80345 | 120.63488 | 17632 ft | 232 kts | 190° |
| 2026-04-28 07:53 | 27.78731 | 120.63338 | 17631 ft | 233 kts | 190° |
| 2026-04-28 07:53 | 27.77106 | 120.63188 | 17630 ft | 234 kts | 190° |
| 2026-04-28 07:53 | 27.75493 | 120.62989 | 17628 ft | 231 kts | 198° |
| 2026-04-28 07:53 | 27.74055 | 120.62320 | 17633 ft | 225 kts | 214° |
| 2026-04-28 07:54 | 27.72738 | 120.61365 | 17635 ft | 225 kts | 216° |
| 2026-04-28 07:54 | 27.71408 | 120.60417 | 17637 ft | 226 kts | 215° |
| 2026-04-28 07:54 | 27.70079 | 120.59472 | 17632 ft | 226 kts | 215° |
| 2026-04-28 07:54 | 27.68751 | 120.58521 | 17632 ft | 226 kts | 215° |
| 2026-04-28 07:55 | 27.67419 | 120.57567 | 17630 ft | 226 kts | 215° |
| 2026-04-28 07:55 | 27.66097 | 120.56623 | 17633 ft | 225 kts | 215° |
| 2026-04-28 07:55 | 27.64774 | 120.55679 | 17628 ft | 224 kts | 215° |
| 2026-04-28 07:55 | 27.63453 | 120.54734 | 17629 ft | 225 kts | 215° |
| 2026-04-28 07:56 | 27.62132 | 120.53791 | 17624 ft | 225 kts | 215° |
| 2026-04-28 07:56 | 27.60824 | 120.52855 | 17627 ft | 225 kts | 215° |
| 2026-04-28 07:56 | 27.59497 | 120.51910 | 17622 ft | 226 kts | 215° |
| 2026-04-28 07:56 | 27.58169 | 120.50963 | 17623 ft | 226 kts | 215° |
| 2026-04-28 07:57 | 27.56840 | 120.50015 | 17627 ft | 226 kts | 215° |
| 2026-04-28 07:57 | 27.55506 | 120.49063 | 17620 ft | 226 kts | 215° |
| 2026-04-28 07:57 | 27.54175 | 120.48114 | 17623 ft | 227 kts | 215° |
| 2026-04-28 07:57 | 27.52842 | 120.47164 | 17623 ft | 227 kts | 215° |
| 2026-04-28 07:58 | 27.51507 | 120.46214 | 17625 ft | 227 kts | 215° |
| 2026-04-28 07:58 | 27.50171 | 120.45262 | 17626 ft | 227 kts | 215° |
| 2026-04-28 07:58 | 27.48831 | 120.44308 | 17622 ft | 228 kts | 215° |
| 2026-04-28 07:58 | 27.47493 | 120.43355 | 17621 ft | 228 kts | 215° |
| 2026-04-28 07:59 | 27.46152 | 120.42401 | 17623 ft | 228 kts | 215° |
| 2026-04-28 07:59 | 27.44810 | 120.41447 | 17617 ft | 228 kts | 214° |
| 2026-04-28 07:59 | 27.43472 | 120.40495 | 17620 ft | 228 kts | 215° |
| 2026-04-28 07:59 | 27.42134 | 120.39543 | 17616 ft | 228 kts | 214° |
| 2026-04-28 08:00 | 27.40793 | 120.38591 | 17622 ft | 228 kts | 214° |
| 2026-04-28 08:00 | 27.39475 | 120.37654 | 17611 ft | 226 kts | 214° |
| 2026-04-28 08:00 | 27.38150 | 120.36714 | 17616 ft | 225 kts | 214° |
| 2026-04-28 08:00 | 27.36828 | 120.35773 | 17614 ft | 225 kts | 214° |
| 2026-04-28 08:01 | 27.35510 | 120.34838 | 17617 ft | 223 kts | 214° |
| 2026-04-28 08:01 | 27.34193 | 120.33910 | 17616 ft | 223 kts | 214° |
| 2026-04-28 08:01 | 27.32874 | 120.32975 | 17615 ft | 224 kts | 214° |
| 2026-04-28 08:01 | 27.31555 | 120.32040 | 17615 ft | 224 kts | 214° |
| 2026-04-28 08:02 | 27.30228 | 120.31102 | 17617 ft | 225 kts | 214° |
| 2026-04-28 08:02 | 27.28903 | 120.30165 | 17616 ft | 225 kts | 214° |
| 2026-04-28 08:02 | 27.27577 | 120.29227 | 17619 ft | 225 kts | 214° |
| 2026-04-28 08:02 | 27.26251 | 120.28289 | 17619 ft | 225 kts | 214° |
| 2026-04-28 08:03 | 27.24921 | 120.27351 | 17613 ft | 225 kts | 214° |
| 2026-04-28 08:03 | 27.23597 | 120.26415 | 17613 ft | 225 kts | 214° |
| 2026-04-28 08:03 | 27.22274 | 120.25480 | 17616 ft | 224 kts | 214° |
| 2026-04-28 08:03 | 27.21399 | 120.24863 | 17615 ft | 225 kts | 214° |
| 2026-04-28 08:04 | 27.19645 | 120.23624 | 17624 ft | 224 kts | 214° |
| 2026-04-28 08:04 | 27.18750 | 120.22993 | 17617 ft | 225 kts | 214° |
| 2026-04-28 08:04 | 27.16996 | 120.21755 | 17616 ft | 225 kts | 214° |
| 2026-04-28 08:04 | 27.15672 | 120.20821 | 17615 ft | 223 kts | 214° |
| 2026-04-28 08:05 | 27.14357 | 120.19894 | 17619 ft | 224 kts | 214° |
| 2026-04-28 08:05 | 27.13044 | 120.18969 | 17625 ft | 221 kts | 214° |
| 2026-04-28 08:05 | 27.11751 | 120.18058 | 17622 ft | 219 kts | 214° |
| 2026-04-28 08:05 | 27.10457 | 120.17133 | 17626 ft | 220 kts | 214° |
| 2026-04-28 08:06 | 27.09174 | 120.16216 | 17625 ft | 222 kts | 214° |
| 2026-04-28 08:06 | 27.07850 | 120.15275 | 17626 ft | 224 kts | 214° |
| 2026-04-28 08:06 | 27.06549 | 120.14351 | 17619 ft | 224 kts | 215° |
| 2026-04-28 08:06 | 27.05229 | 120.13412 | 17624 ft | 225 kts | 215° |
| 2026-04-28 08:07 | 27.03903 | 120.12470 | 17621 ft | 226 kts | 214° |
| 2026-04-28 08:07 | 27.02575 | 120.11527 | 17605 ft | 224 kts | 214° |
| 2026-04-28 08:07 | 27.01263 | 120.10600 | 17618 ft | 223 kts | 214° |
| 2026-04-28 08:07 | 26.99955 | 120.09667 | 17621 ft | 223 kts | 215° |
| 2026-04-28 08:08 | 26.98642 | 120.08733 | 17618 ft | 223 kts | 215° |
| 2026-04-28 08:08 | 26.97331 | 120.07803 | 17624 ft | 223 kts | 214° |
| 2026-04-28 08:08 | 26.96459 | 120.07186 | 17619 ft | 224 kts | 215° |
| 2026-04-28 08:08 | 26.94690 | 120.05932 | 17620 ft | 225 kts | 215° |
| 2026-04-28 08:09 | 26.93366 | 120.04992 | 17620 ft | 225 kts | 215° |
| 2026-04-28 08:09 | 26.92041 | 120.04053 | 17626 ft | 226 kts | 215° |
| 2026-04-28 08:09 | 26.91159 | 120.03427 | 17621 ft | 227 kts | 215° |
| 2026-04-28 08:09 | 26.89392 | 120.02177 | 17617 ft | 226 kts | 215° |
| 2026-04-28 08:10 | 26.88061 | 120.01234 | 17614 ft | 226 kts | 214° |
| 2026-04-28 08:10 | 26.87164 | 120.00600 | 17613 ft | 225 kts | 215° |
| 2026-04-28 08:10 | 26.85841 | 119.99664 | 17615 ft | 224 kts | 215° |
| 2026-04-28 08:10 | 26.84522 | 119.98733 | 17619 ft | 224 kts | 215° |
| 2026-04-28 08:11 | 26.82766 | 119.97490 | 17617 ft | 226 kts | 215° |
| 2026-04-28 08:11 | 26.81886 | 119.96869 | 17615 ft | 225 kts | 215° |
| 2026-04-28 08:11 | 26.80559 | 119.95934 | 17618 ft | 225 kts | 214° |
| 2026-04-28 08:11 | 26.79236 | 119.94999 | 17617 ft | 225 kts | 215° |
| 2026-04-28 08:12 | 26.77908 | 119.94062 | 17612 ft | 225 kts | 215° |
| 2026-04-28 08:12 | 26.76586 | 119.93130 | 17615 ft | 224 kts | 215° |
| 2026-04-28 08:12 | 26.75265 | 119.92199 | 17612 ft | 225 kts | 215° |
| 2026-04-28 08:12 | 26.73944 | 119.91267 | 17610 ft | 225 kts | 215° |
| 2026-04-28 08:13 | 26.72622 | 119.90336 | 17612 ft | 224 kts | 215° |
| 2026-04-28 08:13 | 26.71301 | 119.89405 | 17608 ft | 224 kts | 215° |
| 2026-04-28 08:13 | 26.69979 | 119.88473 | 17612 ft | 225 kts | 215° |
| 2026-04-28 08:13 | 26.68657 | 119.87542 | 17610 ft | 224 kts | 215° |
| 2026-04-28 08:14 | 26.67336 | 119.86612 | 17613 ft | 225 kts | 215° |
| 2026-04-28 08:14 | 26.66013 | 119.85681 | 17612 ft | 224 kts | 215° |
| 2026-04-28 08:14 | 26.64692 | 119.84751 | 17611 ft | 224 kts | 215° |
| 2026-04-28 08:14 | 26.63392 | 119.83837 | 17612 ft | 224 kts | 215° |
| 2026-04-28 08:15 | 26.62075 | 119.82911 | 17611 ft | 223 kts | 215° |
| 2026-04-28 08:15 | 26.60750 | 119.81980 | 17608 ft | 223 kts | 215° |
| 2026-04-28 08:15 | 26.59434 | 119.81055 | 17611 ft | 223 kts | 215° |
| 2026-04-28 08:15 | 26.58116 | 119.80128 | 17612 ft | 223 kts | 215° |
| 2026-04-28 08:16 | 26.56801 | 119.79205 | 17608 ft | 223 kts | 215° |
| 2026-04-28 08:16 | 26.55497 | 119.78301 | 17610 ft | 224 kts | 214° |
| 2026-04-28 08:16 | 26.54175 | 119.77382 | 17597 ft | 223 kts | 215° |
| 2026-04-28 08:16 | 26.52871 | 119.76459 | 17609 ft | 221 kts | 215° |
| 2026-04-28 08:17 | 26.51568 | 119.75543 | 17617 ft | 222 kts | 215° |
| 2026-04-28 08:17 | 26.50262 | 119.74627 | 17609 ft | 222 kts | 215° |
| 2026-04-28 08:17 | 26.48954 | 119.73711 | 17618 ft | 222 kts | 215° |
| 2026-04-28 08:17 | 26.47638 | 119.72788 | 17615 ft | 224 kts | 216° |
| 2026-04-28 08:18 | 26.46318 | 119.71860 | 17619 ft | 225 kts | 215° |
| 2026-04-28 08:18 | 26.44992 | 119.70931 | 17615 ft | 226 kts | 215° |
| 2026-04-28 08:18 | 26.43663 | 119.69998 | 17618 ft | 225 kts | 215° |
| 2026-04-28 08:18 | 26.42338 | 119.69069 | 17610 ft | 225 kts | 215° |
| 2026-04-28 08:19 | 26.41016 | 119.68143 | 17613 ft | 225 kts | 215° |
| 2026-04-28 08:19 | 26.39692 | 119.67214 | 17610 ft | 224 kts | 215° |
| 2026-04-28 08:19 | 26.38367 | 119.66286 | 17611 ft | 224 kts | 215° |
| 2026-04-28 08:19 | 26.37045 | 119.65359 | 17614 ft | 225 kts | 215° |
| 2026-04-28 08:20 | 26.35717 | 119.64429 | 17610 ft | 225 kts | 215° |
| 2026-04-28 08:20 | 26.34388 | 119.63500 | 17613 ft | 226 kts | 214° |
| 2026-04-28 08:20 | 26.33057 | 119.62568 | 17610 ft | 226 kts | 214° |
| 2026-04-28 08:20 | 26.31746 | 119.61649 | 17609 ft | 225 kts | 214° |
| 2026-04-28 08:21 | 26.30417 | 119.60719 | 17612 ft | 225 kts | 214° |
| 2026-04-28 08:21 | 26.29090 | 119.59791 | 17608 ft | 225 kts | 214° |
| 2026-04-28 08:21 | 26.27761 | 119.58863 | 17602 ft | 225 kts | 214° |
| 2026-04-28 08:21 | 26.26435 | 119.57937 | 17603 ft | 225 kts | 214° |
| 2026-04-28 08:22 | 26.25108 | 119.57008 | 17608 ft | 226 kts | 214° |
| 2026-04-28 08:22 | 26.23776 | 119.56077 | 17603 ft | 226 kts | 214° |
| 2026-04-28 08:22 | 26.22443 | 119.55147 | 17602 ft | 226 kts | 213° |
| 2026-04-28 08:22 | 26.20987 | 119.54477 | 17605 ft | 229 kts | 199° |
| 2026-04-28 08:23 | 26.19460 | 119.53981 | 17607 ft | 229 kts | 201° |
| 2026-04-28 08:23 | 26.17937 | 119.53452 | 17603 ft | 229 kts | 201° |
| 2026-04-28 08:23 | 26.16420 | 119.52928 | 17606 ft | 228 kts | 201° |
| 2026-04-28 08:23 | 26.14897 | 119.52410 | 17598 ft | 228 kts | 201° |
| 2026-04-28 08:24 | 26.13384 | 119.51895 | 17597 ft | 227 kts | 201° |
| 2026-04-28 08:24 | 26.11869 | 119.51377 | 17592 ft | 228 kts | 201° |
| 2026-04-28 08:24 | 26.10375 | 119.50868 | 17602 ft | 228 kts | 201° |
| 2026-04-28 08:24 | 26.08838 | 119.50344 | 17599 ft | 228 kts | 200° |
| 2026-04-28 08:25 | 26.07335 | 119.49831 | 17595 ft | 229 kts | 200° |
| 2026-04-28 08:25 | 26.05814 | 119.49313 | 17595 ft | 229 kts | 200° |
| 2026-04-28 08:25 | 26.04286 | 119.48791 | 17593 ft | 229 kts | 200° |
| 2026-04-28 08:26 | 26.01238 | 119.47754 | 17596 ft | 229 kts | 200° |
| 2026-04-28 08:26 | 25.99715 | 119.47236 | 17593 ft | 229 kts | 200° |
| 2026-04-28 08:26 | 25.98191 | 119.46717 | 17592 ft | 229 kts | 200° |
| 2026-04-28 08:26 | 25.96666 | 119.46198 | 17591 ft | 229 kts | 200° |
| 2026-04-28 08:27 | 25.95139 | 119.45679 | 17594 ft | 229 kts | 200° |
| 2026-04-28 08:27 | 25.93615 | 119.45161 | 17587 ft | 228 kts | 200° |
| 2026-04-28 08:27 | 25.92099 | 119.44646 | 17596 ft | 227 kts | 200° |
| 2026-04-28 08:27 | 25.90581 | 119.44130 | 17595 ft | 228 kts | 200° |
| 2026-04-28 08:28 | 25.89064 | 119.43613 | 17590 ft | 228 kts | 200° |
| 2026-04-28 08:28 | 25.87545 | 119.43098 | 17593 ft | 228 kts | 200° |
| 2026-04-28 08:28 | 25.86042 | 119.42588 | 17593 ft | 229 kts | 200° |
| 2026-04-28 08:28 | 25.84516 | 119.42070 | 17593 ft | 229 kts | 200° |
| 2026-04-28 08:29 | 25.82986 | 119.41551 | 17594 ft | 230 kts | 200° |
| 2026-04-28 08:29 | 25.81452 | 119.41030 | 17592 ft | 230 kts | 200° |
| 2026-04-28 08:29 | 25.79921 | 119.40510 | 17594 ft | 230 kts | 200° |
| 2026-04-28 08:29 | 25.78385 | 119.39990 | 17589 ft | 230 kts | 200° |
| 2026-04-28 08:30 | 25.76869 | 119.39476 | 17591 ft | 230 kts | 200° |
| 2026-04-28 08:30 | 25.75337 | 119.38956 | 17592 ft | 230 kts | 200° |
| 2026-04-28 08:30 | 25.73899 | 119.38224 | 17589 ft | 227 kts | 217° |
| 2026-04-28 08:30 | 25.72751 | 119.37043 | 17590 ft | 225 kts | 228° |
| 2026-04-28 08:31 | 25.71679 | 119.35764 | 17595 ft | 225 kts | 228° |
| 2026-04-28 08:31 | 25.70602 | 119.34505 | 17594 ft | 226 kts | 227° |
| 2026-04-28 08:31 | 25.69525 | 119.33240 | 17594 ft | 226 kts | 228° |
| 2026-04-28 08:31 | 25.68448 | 119.31973 | 17593 ft | 226 kts | 228° |
| 2026-04-28 08:32 | 25.67370 | 119.30704 | 17594 ft | 226 kts | 228° |
| 2026-04-28 08:32 | 25.66290 | 119.29434 | 17594 ft | 226 kts | 228° |
| 2026-04-28 08:32 | 25.65211 | 119.28167 | 17594 ft | 226 kts | 228° |
| 2026-04-28 08:32 | 25.64129 | 119.26895 | 17596 ft | 226 kts | 228° |
| 2026-04-28 08:33 | 25.63060 | 119.25641 | 17590 ft | 226 kts | 228° |
| 2026-04-28 08:33 | 25.61983 | 119.24376 | 17588 ft | 225 kts | 227° |
| 2026-04-28 08:33 | 25.60905 | 119.23110 | 17589 ft | 226 kts | 228° |
| 2026-04-28 08:33 | 25.59826 | 119.21843 | 17595 ft | 226 kts | 228° |
| 2026-04-28 08:34 | 25.58748 | 119.20579 | 17594 ft | 226 kts | 228° |
| 2026-04-28 08:34 | 25.57661 | 119.19306 | 17594 ft | 227 kts | 228° |
| 2026-04-28 08:34 | 25.56576 | 119.18033 | 17587 ft | 227 kts | 228° |
| 2026-04-28 08:34 | 25.55492 | 119.16764 | 17590 ft | 227 kts | 228° |
| 2026-04-28 08:35 | 25.54409 | 119.15494 | 17597 ft | 227 kts | 228° |
| 2026-04-28 08:35 | 25.53321 | 119.14217 | 17597 ft | 227 kts | 228° |
| 2026-04-28 08:35 | 25.52237 | 119.12948 | 17592 ft | 227 kts | 228° |
| 2026-04-28 08:35 | 25.51152 | 119.11679 | 17591 ft | 227 kts | 228° |
| 2026-04-28 08:36 | 25.50077 | 119.10421 | 17593 ft | 227 kts | 228° |
| 2026-04-28 08:36 | 25.48991 | 119.09150 | 17594 ft | 227 kts | 228° |
| 2026-04-28 08:36 | 25.47891 | 119.07864 | 17593 ft | 227 kts | 228° |
| 2026-04-28 08:36 | 25.46819 | 119.06609 | 17591 ft | 227 kts | 228° |
| 2026-04-28 08:37 | 25.45734 | 119.05340 | 17592 ft | 227 kts | 228° |
| 2026-04-28 08:37 | 25.44648 | 119.04071 | 17590 ft | 227 kts | 228° |
| 2026-04-28 08:37 | 25.43562 | 119.02802 | 17590 ft | 227 kts | 228° |
| 2026-04-28 08:37 | 25.42477 | 119.01534 | 17590 ft | 227 kts | 228° |
| 2026-04-28 08:38 | 25.41392 | 119.00267 | 17592 ft | 227 kts | 228° |
| 2026-04-28 08:38 | 25.40306 | 118.99000 | 17588 ft | 227 kts | 228° |
| 2026-04-28 08:38 | 25.39219 | 118.97731 | 17587 ft | 227 kts | 228° |
| 2026-04-28 08:38 | 25.38132 | 118.96462 | 17589 ft | 227 kts | 228° |
| 2026-04-28 08:39 | 25.37043 | 118.95192 | 17589 ft | 228 kts | 228° |
| 2026-04-28 08:39 | 25.35967 | 118.93936 | 17589 ft | 228 kts | 228° |
| 2026-04-28 08:39 | 25.34876 | 118.92665 | 17587 ft | 228 kts | 228° |
| 2026-04-28 08:39 | 25.33800 | 118.91380 | 17589 ft | 227 kts | 230° |
| 2026-04-28 08:40 | 25.32734 | 118.90065 | 17586 ft | 227 kts | 229° |
| 2026-04-28 08:40 | 25.31666 | 118.88806 | 17585 ft | 227 kts | 229° |
| 2026-04-28 08:40 | 25.30595 | 118.87520 | 17586 ft | 228 kts | 229° |
| 2026-04-28 08:40 | 25.29541 | 118.86239 | 17583 ft | 227 kts | 229° |
| 2026-04-28 08:41 | 25.28477 | 118.84939 | 17581 ft | 228 kts | 229° |
| 2026-04-28 08:41 | 25.27407 | 118.83655 | 17370 ft | 221 kts | 229° |
| 2026-04-28 08:41 | 25.26391 | 118.82429 | 17215 ft | 212 kts | 229° |
| 2026-04-28 08:41 | 25.25404 | 118.81230 | 17028 ft | 211 kts | 229° |
| 2026-04-28 08:42 | 25.24406 | 118.80020 | 16854 ft | 212 kts | 229° |
| 2026-04-28 08:42 | 25.23411 | 118.78821 | 16724 ft | 214 kts | 229° |
| 2026-04-28 08:42 | 25.22412 | 118.77615 | 16627 ft | 217 kts | 229° |
| 2026-04-28 08:42 | 25.21378 | 118.76364 | 16535 ft | 219 kts | 229° |
| 2026-04-28 08:43 | 25.20349 | 118.75122 | 16446 ft | 219 kts | 229° |
| 2026-04-28 08:43 | 25.19330 | 118.73890 | 16363 ft | 220 kts | 229° |
| 2026-04-28 08:43 | 25.18301 | 118.72648 | 16259 ft | 220 kts | 229° |
| 2026-04-28 08:43 | 25.17267 | 118.71402 | 16160 ft | 220 kts | 229° |
| 2026-04-28 08:44 | 25.16234 | 118.70155 | 16072 ft | 220 kts | 229° |
| 2026-04-28 08:44 | 25.15196 | 118.68904 | 15968 ft | 221 kts | 229° |
| 2026-04-28 08:44 | 25.14160 | 118.67655 | 15879 ft | 221 kts | 229° |
| 2026-04-28 08:44 | 25.13125 | 118.66405 | 15791 ft | 220 kts | 229° |
| 2026-04-28 08:45 | 25.12091 | 118.65159 | 15702 ft | 220 kts | 229° |
| 2026-04-28 08:45 | 25.11054 | 118.63910 | 15565 ft | 222 kts | 228° |
| 2026-04-28 08:45 | 25.10013 | 118.62657 | 15382 ft | 221 kts | 228° |
| 2026-04-28 08:45 | 25.08962 | 118.61421 | 15231 ft | 218 kts | 226° |
| 2026-04-28 08:46 | 25.07920 | 118.60241 | 15063 ft | 216 kts | 227° |
| 2026-04-28 08:46 | 25.06885 | 118.59025 | 14893 ft | 218 kts | 227° |
| 2026-04-28 08:46 | 25.05833 | 118.57807 | 14726 ft | 219 kts | 227° |
| 2026-04-28 08:46 | 25.04777 | 118.56595 | 14569 ft | 219 kts | 227° |
| 2026-04-28 08:47 | 25.03733 | 118.55398 | 14415 ft | 219 kts | 227° |
| 2026-04-28 08:47 | 25.02679 | 118.54185 | 14259 ft | 219 kts | 227° |
| 2026-04-28 08:47 | 25.01620 | 118.52966 | 14069 ft | 220 kts | 227° |
| 2026-04-28 08:47 | 25.00559 | 118.51749 | 13924 ft | 218 kts | 226° |
| 2026-04-28 08:48 | 24.99521 | 118.50557 | 13761 ft | 213 kts | 226° |
| 2026-04-28 08:48 | 24.98500 | 118.49384 | 13593 ft | 211 kts | 226° |
| 2026-04-28 08:48 | 24.97487 | 118.48223 | 13413 ft | 210 kts | 226° |
| 2026-04-28 08:48 | 24.96477 | 118.47065 | 13214 ft | 209 kts | 226° |
| 2026-04-28 08:49 | 24.95473 | 118.45913 | 13019 ft | 208 kts | 226° |
| 2026-04-28 08:49 | 24.94482 | 118.44776 | 12841 ft | 208 kts | 226° |
| 2026-04-28 08:49 | 24.93484 | 118.43631 | 12640 ft | 207 kts | 226° |
| 2026-04-28 08:49 | 24.92485 | 118.42485 | 12453 ft | 207 kts | 226° |
| 2026-04-28 08:50 | 24.91484 | 118.41338 | 12264 ft | 208 kts | 226° |
| 2026-04-28 08:50 | 24.90481 | 118.40189 | 12105 ft | 208 kts | 226° |
| 2026-04-28 08:50 | 24.89477 | 118.39039 | 11951 ft | 208 kts | 226° |
| 2026-04-28 08:50 | 24.88470 | 118.37886 | 11788 ft | 208 kts | 226° |
| 2026-04-28 08:51 | 24.87466 | 118.36738 | 11633 ft | 207 kts | 226° |
| 2026-04-28 08:51 | 24.86480 | 118.35608 | 11456 ft | 207 kts | 226° |
| 2026-04-28 08:51 | 24.85485 | 118.34469 | 11305 ft | 206 kts | 226° |
| 2026-04-28 08:51 | 24.84490 | 118.33333 | 11091 ft | 206 kts | 226° |
| 2026-04-28 08:52 | 24.83497 | 118.32196 | 10948 ft | 206 kts | 226° |
| 2026-04-28 08:52 | 24.82505 | 118.31060 | 10823 ft | 206 kts | 226° |
| 2026-04-28 08:52 | 24.81508 | 118.29924 | 10661 ft | 206 kts | 225° |
| 2026-04-28 08:52 | 24.80513 | 118.28794 | 10548 ft | 206 kts | 226° |
| 2026-04-28 08:53 | 24.79520 | 118.27658 | 10441 ft | 206 kts | 226° |
| 2026-04-28 08:53 | 24.78526 | 118.26528 | 10312 ft | 205 kts | 225° |
| 2026-04-28 08:53 | 24.77532 | 118.25397 | 10179 ft | 205 kts | 225° |
| 2026-04-28 08:53 | 24.76543 | 118.24270 | 10034 ft | 205 kts | 226° |
| 2026-04-28 08:54 | 24.75549 | 118.23137 | 9901 ft | 205 kts | 225° |
| 2026-04-28 08:54 | 24.74559 | 118.22012 | 9780 ft | 205 kts | 225° |
| 2026-04-28 08:54 | 24.73570 | 118.20887 | 9629 ft | 204 kts | 225° |
| 2026-04-28 08:54 | 24.72583 | 118.19761 | 9454 ft | 204 kts | 226° |
| 2026-04-28 08:55 | 24.71594 | 118.18640 | 9321 ft | 204 kts | 225° |
| 2026-04-28 08:55 | 24.70607 | 118.17520 | 9176 ft | 204 kts | 226° |
| 2026-04-28 08:55 | 24.69625 | 118.16397 | 9022 ft | 204 kts | 225° |
| 2026-04-28 08:55 | 24.68637 | 118.15276 | 8882 ft | 204 kts | 225° |
| 2026-04-28 08:56 | 24.67664 | 118.14171 | 8723 ft | 203 kts | 225° |
| 2026-04-28 08:56 | 24.66680 | 118.13052 | 8606 ft | 202 kts | 226° |
| 2026-04-28 08:56 | 24.65701 | 118.11942 | 8465 ft | 202 kts | 226° |
| 2026-04-28 08:56 | 24.64724 | 118.10834 | 8355 ft | 201 kts | 225° |
| 2026-04-28 08:57 | 24.63754 | 118.09731 | 8135 ft | 199 kts | 226° |
| 2026-04-28 08:57 | 24.62796 | 118.08638 | 8026 ft | 197 kts | 225° |
| 2026-04-28 08:57 | 24.61839 | 118.07558 | 7889 ft | 196 kts | 225° |
| 2026-04-28 08:57 | 24.60891 | 118.06482 | 7762 ft | 196 kts | 225° |
| 2026-04-28 08:58 | 24.59955 | 118.05422 | 7628 ft | 196 kts | 225° |
| 2026-04-28 08:58 | 24.58996 | 118.04336 | 7494 ft | 195 kts | 225° |
| 2026-04-28 08:58 | 24.58066 | 118.03279 | 7372 ft | 194 kts | 225° |
| 2026-04-28 08:58 | 24.57124 | 118.02208 | 7252 ft | 194 kts | 225° |
| 2026-04-28 08:59 | 24.56194 | 118.01127 | 7140 ft | 195 kts | 229° |
| 2026-04-28 08:59 | 24.55299 | 118.00021 | 6946 ft | 193 kts | 227° |
| 2026-04-28 08:59 | 24.54392 | 117.98939 | 6740 ft | 192 kts | 228° |
| 2026-04-28 08:59 | 24.53501 | 117.97858 | 6616 ft | 191 kts | 227° |
| 2026-04-28 09:00 | 24.52611 | 117.96776 | 6458 ft | 191 kts | 228° |
| 2026-04-28 09:00 | 24.51720 | 117.95695 | 6297 ft | 191 kts | 227° |
| 2026-04-28 09:00 | 24.50830 | 117.94616 | 6067 ft | 190 kts | 227° |
| 2026-04-28 09:00 | 24.49943 | 117.93537 | 5888 ft | 190 kts | 227° |
| 2026-04-28 09:01 | 24.49057 | 117.92456 | 5734 ft | 190 kts | 227° |
| 2026-04-28 09:01 | 24.48171 | 117.91382 | 5417 ft | 189 kts | 226° |
| 2026-04-28 09:01 | 24.47145 | 117.90543 | 5088 ft | 186 kts | 204° |
| 2026-04-28 09:01 | 24.46312 | 117.90266 | 4859 ft | 186 kts | 191° |
| 2026-04-28 09:02 | 24.45025 | 117.90316 | 4507 ft | 188 kts | 169° |
| 2026-04-28 09:02 | 24.43838 | 117.90922 | 4161 ft | 190 kts | 147° |
| 2026-04-28 09:02 | 24.42832 | 117.91858 | 3836 ft | 191 kts | 136° |
| 2026-04-28 09:02 | 24.42174 | 117.93134 | 3514 ft | 195 kts | 112° |
| 2026-04-28 09:03 | 24.42036 | 117.94600 | 3273 ft | 198 kts | 88° |
| 2026-04-28 09:03 | 24.42487 | 117.96015 | 3028 ft | 201 kts | 60° |
| 2026-04-28 09:03 | 24.43351 | 117.97256 | 2809 ft | 207 kts | 54° |
| 2026-04-28 09:03 | 24.44243 | 117.98505 | 2616 ft | 207 kts | 55° |
| 2026-04-28 09:04 | 24.45096 | 117.99696 | 2427 ft | 189 kts | 55° |
| 2026-04-28 09:04 | 24.45871 | 118.00792 | 2293 ft | 175 kts | 56° |
| 2026-04-28 09:04 | 24.46599 | 118.01810 | 2284 ft | 165 kts | 56° |
| 2026-04-28 09:04 | 24.47309 | 118.02806 | 2015 ft | 166 kts | 56° |
| 2026-04-28 09:05 | 24.47998 | 118.03768 | 1788 ft | 153 kts | 56° |
| 2026-04-28 09:05 | 24.48613 | 118.04628 | 1597 ft | 132 kts | 58° |
| 2026-04-28 09:05 | 24.49161 | 118.05402 | 1425 ft | 127 kts | 56° |
| 2026-04-28 09:05 | 24.49707 | 118.06165 | 1270 ft | 127 kts | 57° |
| 2026-04-28 09:06 | 24.50248 | 118.06924 | 1095 ft | 127 kts | 57° |
| 2026-04-28 09:06 | 24.50786 | 118.07681 | 979 ft | 124 kts | 55° |
| 2026-04-28 09:06 | 24.51326 | 118.08426 | 817 ft | 122 kts | 58° |
| 2026-04-28 09:06 | 24.51844 | 118.09159 | 629 ft | 123 kts | 53° |
| 2026-04-28 09:07 | 24.52357 | 118.09875 | 474 ft | 119 kts | 54° |
| 2026-04-28 09:07 | 24.52860 | 118.10582 | 329 ft | 115 kts | 54° |
| 2026-04-28 09:07 | 24.53341 | 118.11252 | 157 ft | 109 kts | 57° |
| 2026-04-28 09:07 | 24.53764 | 118.11846 | 38 ft | 85 kts | 56° |
| 2026-04-28 09:08 | 24.54072 | 118.12291 | 39 ft | 66 kts | 51° |
| 2026-04-28 09:08 | 24.54343 | 118.12665 | 38 ft | 45 kts | 51° |
| 2026-04-28 09:08 | 24.54479 | 118.12875 | 37 ft | 27 kts | 67° |
| 2026-04-28 09:08 | 24.54520 | 118.13034 | 38 ft | 15 kts | 79° |
| 2026-04-28 09:09 | 24.54523 | 118.13134 | 39 ft | 13 kts | 130° |
| 2026-04-28 09:09 | 24.54448 | 118.13157 | 39 ft | 11 kts | 139° |
| 2026-04-28 09:09 | 24.54386 | 118.13139 | 39 ft | 11 kts | 232° |
| 2026-04-28 09:09 | 24.54333 | 118.13063 | 39 ft | 14 kts | 230° |
| 2026-04-28 09:10 | 24.54289 | 118.13003 | 39 ft | 4 kts | 200° |
| 2026-04-28 09:10 | 24.54269 | 118.13017 | 39 ft | 0 kts | 143° |
| 2026-04-28 09:10 | 24.54263 | 118.13022 | 39 ft | 0 kts | 143° |